createdAt,value
2019-02-27T08:49:31.906Z,91.80
2019-02-27T08:52:02.711Z,91.10
2019-02-27T08:54:33.161Z,91.40
2019-02-27T08:57:03.669Z,90.70
2019-02-27T08:59:37.002Z,90.30
2019-02-27T09:02:09.194Z,90.10
2019-02-27T09:04:39.657Z,90.00
2019-02-27T09:07:10.342Z,89.00
2019-02-27T09:09:40.601Z,89.10
2019-02-27T09:12:13.084Z,88.30
2019-02-27T09:14:46.166Z,87.50
2019-02-27T09:17:18.731Z,88.20
2019-02-27T09:19:49.676Z,88.30
2019-02-27T09:22:21.127Z,88.20
2019-02-27T09:24:52.384Z,87.90
2019-02-27T09:27:22.373Z,87.80
2019-02-27T09:29:54.867Z,88.50
2019-02-27T09:32:25.092Z,88.80
2019-02-27T09:34:57.058Z,88.60
2019-02-27T09:37:27.562Z,88.60
2019-02-27T09:39:57.663Z,88.20
2019-02-27T09:42:28.543Z,88.10
2019-02-27T09:44:58.731Z,87.90
2019-02-27T09:47:28.304Z,87.30
2019-02-27T09:50:02.680Z,87.50
2019-02-27T09:52:32.290Z,87.10
2019-02-27T09:55:02.348Z,86.60
2019-02-27T09:57:32.886Z,85.40
2019-02-27T10:00:03.716Z,84.70
2019-02-27T10:02:37.473Z,83.40
2019-02-27T10:05:08.435Z,82.00
2019-02-27T10:07:38.918Z,80.50
2019-02-27T10:10:11.263Z,78.60
2019-02-27T10:12:42.343Z,80.10
2019-02-27T10:15:13.475Z,79.30
2019-02-27T10:17:44.284Z,79.40
2019-02-27T10:20:15.733Z,79.80
2019-02-27T10:22:45.854Z,78.50
2019-02-27T10:25:16.619Z,78.50
2019-02-27T10:27:47.326Z,77.60
2019-02-27T10:30:17.169Z,77.50
2019-02-27T10:32:47.556Z,76.80
2019-02-27T10:35:18.228Z,76.80
2019-02-27T10:37:50.775Z,76.40
2019-02-27T10:40:21.604Z,76.80
2019-02-27T10:42:51.767Z,77.20
2019-02-27T10:45:22.875Z,77.10
2019-02-27T10:47:54.733Z,77.30
2019-02-27T10:50:25.006Z,76.70
2019-02-27T10:52:55.108Z,76.50
2019-02-27T10:55:26.850Z,77.10
2019-02-27T10:57:57.509Z,77.90
2019-02-27T11:00:30.093Z,77.80
2019-02-27T11:03:02.567Z,78.30
2019-02-27T11:05:34.035Z,78.60
2019-02-27T11:08:05.559Z,79.50
2019-02-27T11:10:37.607Z,79.20
2019-02-27T11:13:10.112Z,78.20
2019-02-27T11:15:44.726Z,77.70
2019-02-27T11:18:15.515Z,77.40
2019-02-27T11:20:46.883Z,76.30
2019-02-27T11:23:17.817Z,74.00
2019-02-27T11:25:48.259Z,74.90
2019-02-27T11:28:22.194Z,74.50
2019-02-27T11:30:53.374Z,73.20
2019-02-27T11:33:25.996Z,72.20
2019-02-27T11:35:56.788Z,72.50
2019-02-27T11:38:31.169Z,71.40
2019-02-27T11:41:02.202Z,71.00
2019-02-27T11:43:32.603Z,70.70
2019-02-27T11:46:03.991Z,70.20
2019-02-27T11:48:34.184Z,68.70
2019-02-27T11:51:05.036Z,68.90
2019-02-27T11:53:36.541Z,67.30
2019-02-27T11:56:10.126Z,66.90
2019-02-27T11:58:40.726Z,65.90
2019-02-27T12:01:12.131Z,65.40
2019-02-27T12:03:45.657Z,65.00
2019-02-27T12:06:14.958Z,65.10
2019-02-27T12:08:45.884Z,65.10
2019-02-27T12:11:16.474Z,65.10
2019-02-27T12:13:46.756Z,65.90
2019-02-27T12:16:18.320Z,64.40
2019-02-27T12:18:51.110Z,63.80
2019-02-27T12:21:21.845Z,63.20
2019-02-27T12:23:51.805Z,62.20
2019-02-27T12:26:22.807Z,59.80
2019-02-27T12:28:53.670Z,59.60
2019-02-27T12:31:24.202Z,59.40
2019-02-27T12:33:54.457Z,58.90
2019-02-27T12:36:24.698Z,58.50
2019-02-27T12:38:54.782Z,58.20
2019-02-27T12:41:25.372Z,56.50
2019-02-27T12:43:56.292Z,56.10
2019-02-27T12:46:31.885Z,55.70
2019-02-27T12:49:01.022Z,55.30
2019-02-27T12:51:31.602Z,55.10
2019-02-27T12:54:01.897Z,55.20
2019-02-27T12:56:32.471Z,54.60
2019-02-27T12:59:04.930Z,54.30
2019-02-27T13:01:34.866Z,54.60
2019-02-27T13:04:04.744Z,55.10
2019-02-27T13:06:37.347Z,55.30
2019-02-27T13:09:09.565Z,55.00
2019-02-27T13:11:41.652Z,55.10
2019-02-27T13:14:12.701Z,54.30
2019-02-27T13:16:42.688Z,54.00
2019-02-27T13:19:14.056Z,53.20
2019-02-27T13:21:48.068Z,52.80
2019-02-27T13:24:18.854Z,53.30
2019-02-27T13:26:51.522Z,53.30
2019-02-27T13:29:21.579Z,53.40
2019-02-27T13:31:52.159Z,52.40
2019-02-27T13:34:22.286Z,52.20
2019-02-27T13:36:53.415Z,51.90
2019-02-27T13:39:25.605Z,52.40
2019-02-27T13:41:56.141Z,52.90
2019-02-27T13:44:28.572Z,52.80
2019-02-27T13:47:00.986Z,52.90
2019-02-27T13:49:33.301Z,53.20
2019-02-27T13:52:21.653Z,53.70
2019-02-27T13:54:47.778Z,53.40
2019-02-27T13:57:19.584Z,53.60
2019-02-27T14:02:41.277Z,53.30
2019-02-27T14:05:11.890Z,52.70
2019-02-27T14:07:45.170Z,53.10
2019-02-27T14:10:17.512Z,53.90
2019-02-27T14:12:49.383Z,54.00
2019-02-27T14:15:20.199Z,53.90
2019-02-27T14:17:49.933Z,54.50
2019-02-27T14:20:27.009Z,54.40
2019-02-27T14:22:57.932Z,54.90
2019-02-27T14:25:32.350Z,55.30
2019-02-27T14:28:00.650Z,55.10
2019-02-27T14:30:36.609Z,55.20
2019-02-27T14:33:07.650Z,55.70
2019-02-27T14:35:38.414Z,55.70
2019-02-27T14:38:10.318Z,56.00
2019-02-27T14:40:42.399Z,56.20
2019-02-27T14:43:12.155Z,56.30
2019-02-27T14:45:44.321Z,56.60
2019-02-27T14:48:14.493Z,57.10
2019-02-27T14:50:45.808Z,57.60
2019-02-27T14:53:18.929Z,57.20
2019-02-27T14:55:51.604Z,57.00
2019-02-27T14:58:24.082Z,57.00
2019-02-27T15:00:55.100Z,57.70
2019-02-27T15:03:29.244Z,58.30
2019-02-27T15:05:57.461Z,58.40
2019-02-27T15:08:28.015Z,58.60
2019-02-27T15:11:02.150Z,58.80
2019-02-27T15:13:33.067Z,58.80
2019-02-27T15:16:03.471Z,58.60
2019-02-27T15:18:34.158Z,58.00
2019-02-27T15:21:04.279Z,58.80
2019-02-27T15:23:33.882Z,58.50
2019-02-27T15:26:06.212Z,58.70
2019-02-27T15:28:36.231Z,58.60
2019-02-27T15:31:06.204Z,58.40
2019-02-27T15:33:39.057Z,58.70
2019-02-27T15:36:08.698Z,58.50
2019-02-27T15:38:38.307Z,58.70
2019-02-27T15:41:07.875Z,58.70
2019-02-27T15:43:37.791Z,58.90
2019-02-27T15:46:07.644Z,59.00
2019-02-27T15:48:40.926Z,59.30
2019-02-27T15:51:11.424Z,59.60
2019-02-27T15:53:41.688Z,59.80
2019-02-27T15:56:11.983Z,59.70
2019-02-27T15:58:42.063Z,59.80
2019-02-27T16:01:15.288Z,60.00
2019-02-27T16:03:46.735Z,60.20
2019-02-27T16:06:16.962Z,59.80
2019-02-27T16:08:47.292Z,60.20
2019-02-27T16:11:17.354Z,60.60
2019-02-27T16:13:47.409Z,60.70
2019-02-27T16:16:22.415Z,61.40
2019-02-27T16:18:49.712Z,61.80
2019-02-27T16:21:20.995Z,61.80
2019-02-27T16:23:52.259Z,62.30
2019-02-27T16:26:27.018Z,61.90
2019-02-27T16:28:53.816Z,62.70
2019-02-27T16:31:23.720Z,63.00
2019-02-27T16:33:55.544Z,63.30
2019-02-27T16:36:25.477Z,63.20
2019-02-27T16:38:56.101Z,63.70
2019-02-27T16:41:28.971Z,64.00
2019-02-27T16:43:57.941Z,64.60
2019-02-27T16:46:27.880Z,64.60
2019-02-27T16:48:58.537Z,65.00
2019-02-27T16:51:31.193Z,65.40
2019-02-27T16:54:00.084Z,65.60
2019-02-27T16:56:30.324Z,65.40
2019-02-27T16:59:01.188Z,65.30
2019-02-27T17:01:30.839Z,65.60
2019-02-27T17:04:01.086Z,65.50
2019-02-27T17:06:30.674Z,65.30
2019-02-27T17:09:00.501Z,65.40
2019-02-27T17:11:32.531Z,65.40
2019-02-27T17:14:02.174Z,65.40
2019-02-27T17:16:32.911Z,65.80
2019-02-27T17:19:02.833Z,65.70
2019-02-27T17:21:32.690Z,66.20
2019-02-27T17:24:02.255Z,66.20
2019-02-27T17:26:35.267Z,66.20
2019-02-27T17:29:05.764Z,67.20
2019-02-27T17:31:36.126Z,67.50
2019-02-27T17:34:06.104Z,67.60
2019-02-27T17:36:36.529Z,67.40
2019-02-27T17:39:07.963Z,67.30
2019-02-27T17:41:38.277Z,67.50
2019-02-27T17:44:09.222Z,68.20
2019-02-27T17:46:39.678Z,68.30
2019-02-27T17:49:09.181Z,68.60
2019-02-27T17:51:41.041Z,69.20
2019-02-27T17:54:11.470Z,69.50
2019-02-27T17:56:41.724Z,69.50
2019-02-27T17:59:11.313Z,70.00
2019-02-27T18:01:42.935Z,70.40
2019-02-27T18:04:14.568Z,70.60
2019-02-27T18:06:44.357Z,71.30
2019-02-27T18:09:14.157Z,71.80
2019-02-27T18:11:43.739Z,72.10
2019-02-27T18:14:13.321Z,72.90
2019-02-27T18:16:43.677Z,73.80
2019-02-27T18:19:16.742Z,74.20
2019-02-27T18:21:45.663Z,74.30
2019-02-27T18:24:15.670Z,75.10
2019-02-27T18:26:51.265Z,75.90
2019-02-27T18:29:22.472Z,76.10
2019-02-27T18:31:52.037Z,76.60
2019-02-27T18:34:23.635Z,76.90
2019-02-27T18:36:53.812Z,77.40
2019-02-27T18:39:25.631Z,77.60
2019-02-27T18:41:56.009Z,77.90
2019-02-27T18:44:25.504Z,78.40
2019-02-27T18:46:56.231Z,78.70
2019-02-27T18:49:26.907Z,79.50
2019-02-27T18:51:56.544Z,80.20
2019-02-27T18:54:26.913Z,80.70
2019-02-27T18:56:56.957Z,81.60
2019-02-27T18:59:30.352Z,82.60
2019-02-27T19:02:00.293Z,82.90
2019-02-27T19:04:35.004Z,83.40
2019-02-27T19:07:02.686Z,83.80
2019-02-27T19:09:33.229Z,84.60
2019-02-27T19:12:03.673Z,84.60
2019-02-27T19:14:36.696Z,85.40
2019-02-27T19:17:07.705Z,85.70
2019-02-27T19:19:37.562Z,86.20
2019-02-27T19:22:11.052Z,87.00
2019-02-27T19:24:39.574Z,87.60
2019-02-27T19:27:09.687Z,88.20
2019-02-27T19:29:41.601Z,87.80
2019-02-27T19:32:14.378Z,88.60
2019-02-27T19:34:47.958Z,89.30
2019-02-27T19:37:16.901Z,89.30
2019-02-27T19:39:46.822Z,90.10
2019-02-27T19:42:17.245Z,90.10
2019-02-27T19:44:47.497Z,90.40
2019-02-27T19:47:18.472Z,90.40
2019-02-27T19:49:49.189Z,90.60
2019-02-27T19:52:18.749Z,90.90
2019-02-27T19:54:51.792Z,90.70
2019-02-27T19:57:19.806Z,91.30
2019-02-27T19:59:49.416Z,91.40
2019-02-27T20:02:21.689Z,91.80
2019-02-27T20:04:52.110Z,91.80
2019-02-27T20:07:24.041Z,91.90
2019-02-27T20:09:54.502Z,92.00
2019-02-27T20:12:27.726Z,92.30
2019-02-27T20:14:58.120Z,92.20
2019-02-27T20:17:32.775Z,92.20
2019-02-27T20:20:04.093Z,92.50
2019-02-27T20:22:32.484Z,92.50
2019-02-27T20:25:02.432Z,92.70
2019-02-27T20:27:32.333Z,92.80
2019-02-27T20:30:02.328Z,93.00
2019-02-27T20:32:33.168Z,92.90
2019-02-27T20:35:04.277Z,93.10
2019-02-27T20:37:37.111Z,93.10
2019-02-27T20:40:07.929Z,93.10
2019-02-27T20:42:37.845Z,92.90
2019-02-27T20:45:11.458Z,93.00
2019-02-27T20:47:41.559Z,93.00
2019-02-27T20:50:20.882Z,93.00
2019-02-27T20:52:49.450Z,93.00
2019-02-27T20:55:19.533Z,93.20
2019-02-27T20:57:51.085Z,93.20
2019-02-27T21:00:21.793Z,93.10
2019-02-27T21:02:53.427Z,93.00
2019-02-27T21:05:25.673Z,93.10
2019-02-27T21:08:00.977Z,92.90
2019-02-27T21:10:27.390Z,92.90
2019-02-27T21:12:57.130Z,92.70
2019-02-27T21:15:32.502Z,92.90
2019-02-27T21:18:01.577Z,92.90
2019-02-27T21:20:33.119Z,93.00
2019-02-27T21:23:02.759Z,92.90
2019-02-27T21:25:32.722Z,93.10
2019-02-27T21:28:06.592Z,92.70
2019-02-27T21:30:35.386Z,93.20
2019-02-27T21:33:05.295Z,93.20
2019-02-27T21:35:35.558Z,93.40
2019-02-27T21:38:05.607Z,93.30
2019-02-27T21:40:36.151Z,93.00
2019-02-27T21:43:07.068Z,93.00
2019-02-27T21:45:38.427Z,93.20
2019-02-27T21:48:08.821Z,93.10
2019-02-27T21:50:40.011Z,93.20
2019-02-27T21:53:10.110Z,93.30
2019-02-27T21:55:39.691Z,93.40
2019-02-27T21:58:19.739Z,93.50
2019-02-27T22:00:41.630Z,93.50
2019-02-27T22:03:11.213Z,93.60
2019-02-27T22:05:43.004Z,93.90
2019-02-27T22:08:13.067Z,93.90
2019-02-27T22:10:42.892Z,93.80
2019-02-27T22:13:13.189Z,93.80
2019-02-27T22:15:44.702Z,94.00
2019-02-27T22:18:17.754Z,94.00
2019-02-27T22:20:48.021Z,94.10
2019-02-27T22:23:18.293Z,94.20
2019-02-27T22:25:48.721Z,94.10
2019-02-27T22:28:19.939Z,94.10
2019-02-27T22:30:49.734Z,94.10
2019-02-27T22:33:23.045Z,94.10
2019-02-27T22:35:51.122Z,94.10
2019-02-27T22:38:25.835Z,94.10
2019-02-27T22:40:52.202Z,93.90
2019-02-27T22:43:23.346Z,94.50
2019-02-27T22:45:53.011Z,94.10
2019-02-27T22:48:27.372Z,94.10
2019-02-27T22:50:54.406Z,94.10
2019-02-27T22:53:26.171Z,94.00
2019-02-27T22:55:55.947Z,94.00
2019-02-27T22:58:27.541Z,94.00
2019-02-27T23:01:08.815Z,94.10
2019-02-27T23:03:45.221Z,94.00
2019-02-27T23:06:15.127Z,93.90
2019-02-27T23:08:44.938Z,93.80
2019-02-27T23:11:15.230Z,93.80
2019-02-27T23:13:48.431Z,93.70
2019-02-27T23:16:19.569Z,93.80
2019-02-27T23:18:50.267Z,93.80
2019-02-27T23:21:19.750Z,93.80
2019-02-27T23:23:49.321Z,93.70
2019-02-27T23:26:20.150Z,93.70
2019-02-27T23:28:50.956Z,93.60
2019-02-27T23:31:23.422Z,93.70
2019-02-27T23:33:52.984Z,93.80
2019-02-27T23:36:22.876Z,93.70
2019-02-27T23:38:52.487Z,93.60
2019-02-27T23:41:24.658Z,93.60
2019-02-27T23:43:55.172Z,93.60
2019-02-27T23:46:25.330Z,93.40
2019-02-27T23:48:55.595Z,93.30
2019-02-27T23:51:25.492Z,93.40
2019-02-27T23:53:55.433Z,93.30
2019-02-27T23:56:24.938Z,93.10
2019-02-27T23:58:55.113Z,93.10
